createdAt,value
2019-03-05T00:01:04.983Z,4.00
2019-03-05T00:03:33.583Z,3.13
2019-03-05T00:06:03.651Z,4.87
2019-03-05T00:08:32.239Z,3.30
2019-03-05T00:11:01.104Z,3.40
2019-03-05T00:13:29.709Z,3.73
2019-03-05T00:15:58.596Z,3.90
2019-03-05T00:18:27.233Z,3.83
2019-03-05T00:20:55.814Z,2.80
2019-03-05T00:23:47.763Z,2.93
2019-03-05T00:26:23.600Z,3.47
2019-03-05T00:29:16.931Z,3.20
2019-03-05T00:31:45.617Z,3.63
2019-03-05T00:34:40.946Z,4.07
2019-03-05T00:37:24.937Z,4.30
2019-03-05T00:40:27.079Z,3.03
2019-03-05T00:43:14.212Z,2.83
2019-03-05T00:46:13.851Z,2.30
2019-03-05T00:49:04.701Z,4.30
2019-03-05T00:52:01.693Z,3.03
2019-03-05T00:55:12.028Z,3.57
2019-03-05T00:58:35.681Z,2.73
2019-03-05T01:01:42.987Z,2.97
2019-03-05T01:04:52.474Z,2.93
2019-03-05T01:07:21.080Z,2.83
2019-03-05T01:09:49.655Z,2.80
2019-03-05T01:12:18.729Z,3.90
2019-03-05T01:14:47.825Z,2.67
2019-03-05T01:17:19.560Z,3.50
2019-03-05T01:19:48.160Z,4.77
2019-03-05T01:22:17.085Z,3.57
2019-03-05T01:24:45.682Z,4.10
2019-03-05T01:27:25.717Z,2.73
2019-03-05T01:30:17.160Z,2.57
2019-03-05T01:33:17.491Z,2.40
2019-03-05T01:35:53.748Z,3.53
2019-03-05T01:38:22.336Z,3.00
2019-03-05T01:40:55.141Z,3.07
2019-03-05T01:43:23.739Z,2.83
2019-03-05T01:45:52.317Z,3.87
2019-03-05T01:48:20.916Z,3.07
2019-03-05T01:50:49.511Z,2.87
2019-03-05T01:53:18.400Z,2.63
2019-03-05T01:55:47.280Z,2.50
2019-03-05T01:58:16.217Z,2.60
2019-03-05T02:00:44.813Z,2.90
2019-03-05T02:03:32.787Z,3.37
2019-03-05T02:06:01.406Z,2.60
2019-03-05T02:08:30.032Z,2.17
2019-03-05T02:10:58.635Z,2.40
2019-03-05T02:13:27.564Z,1.90
2019-03-05T02:15:56.189Z,3.07
2019-03-05T02:18:26.163Z,1.70
2019-03-05T02:20:54.844Z,2.03
2019-03-05T02:23:38.379Z,1.93
2019-03-05T02:26:44.671Z,2.07
2019-03-05T02:29:39.215Z,1.93
2019-03-05T02:32:57.664Z,2.30
2019-03-05T02:36:00.825Z,1.90
2019-03-05T02:38:57.926Z,1.77
2019-03-05T02:41:38.504Z,2.17
2019-03-05T02:44:50.360Z,2.17
2019-03-05T02:48:06.422Z,3.07
2019-03-05T02:51:12.349Z,3.23
2019-03-05T02:53:51.961Z,3.00
2019-03-05T02:56:41.103Z,3.00
2019-03-05T02:59:08.576Z,2.60
2019-03-05T03:01:47.280Z,2.87
2019-03-05T03:04:19.034Z,2.70
2019-03-05T03:06:47.667Z,2.57
2019-03-05T03:10:06.919Z,2.27
2019-03-05T03:12:35.536Z,2.17
2019-03-05T03:15:04.689Z,3.63
2019-03-05T03:17:33.389Z,3.90
2019-03-05T03:20:02.933Z,2.17
2019-03-05T03:22:31.557Z,2.80
2019-03-05T03:25:00.346Z,2.80
2019-03-05T03:27:29.027Z,2.60
2019-03-05T03:29:57.715Z,3.50
2019-03-05T03:32:26.302Z,2.53
2019-03-05T03:34:54.911Z,2.70
2019-03-05T03:37:23.606Z,2.10
2019-03-05T03:39:52.189Z,2.90
2019-03-05T03:42:20.807Z,2.90
2019-03-05T03:44:49.373Z,2.63
2019-03-05T03:47:17.954Z,2.60
2019-03-05T03:49:46.535Z,3.10
2019-03-05T03:52:16.188Z,2.90
2019-03-05T03:54:44.813Z,3.40
2019-03-05T03:57:13.389Z,3.73
2019-03-05T03:59:41.966Z,3.80
2019-03-05T04:02:10.581Z,2.73
2019-03-05T04:04:39.173Z,2.97
2019-03-05T04:07:07.781Z,3.07
2019-03-05T04:09:55.730Z,3.03
2019-03-05T04:12:24.359Z,3.00
2019-03-05T04:14:52.941Z,3.37
2019-03-05T04:17:21.539Z,3.53
2019-03-05T04:19:50.148Z,3.83
2019-03-05T04:22:38.065Z,3.70
2019-03-05T04:25:06.665Z,3.43
2019-03-05T04:27:35.293Z,3.40
2019-03-05T04:30:04.432Z,3.10
2019-03-05T04:32:33.324Z,4.13
2019-03-05T04:35:01.963Z,3.40
2019-03-05T04:37:30.534Z,2.53
2019-03-05T04:39:59.148Z,2.77
2019-03-05T04:42:27.731Z,2.67
2019-03-05T04:45:17.651Z,2.50
2019-03-05T04:47:46.233Z,2.40
2019-03-05T04:50:35.211Z,2.73
2019-03-05T04:53:03.912Z,2.60
2019-03-05T04:55:32.509Z,3.33
2019-03-05T04:58:01.093Z,3.13
2019-03-05T05:00:29.775Z,3.33
2019-03-05T05:02:58.569Z,3.00
2019-03-05T05:05:27.228Z,3.20
2019-03-05T05:07:55.812Z,2.20
2019-03-05T05:10:24.406Z,2.63
2019-03-05T05:12:52.979Z,2.40
2019-03-05T05:15:25.571Z,3.50
2019-03-05T05:17:54.166Z,2.70
2019-03-05T05:20:22.734Z,2.60
2019-03-05T05:22:51.403Z,2.60
2019-03-05T05:25:20.365Z,2.27
2019-03-05T05:27:48.976Z,2.07
2019-03-05T05:30:29.479Z,3.33
2019-03-05T05:32:58.079Z,2.17
2019-03-05T05:35:26.683Z,2.13
2019-03-05T05:37:55.299Z,2.20
2019-03-05T05:40:28.840Z,1.30
2019-03-05T05:42:57.728Z,2.97
2019-03-05T05:45:29.174Z,2.47
2019-03-05T05:47:58.013Z,2.43
2019-03-05T05:50:26.587Z,2.43
2019-03-05T05:52:55.193Z,2.00
2019-03-05T05:55:23.862Z,3.47
2019-03-05T05:57:52.455Z,3.23
2019-03-05T06:00:21.051Z,2.37
2019-03-05T06:03:09.037Z,2.73
2019-03-05T06:05:37.674Z,2.80
2019-03-05T06:08:06.239Z,2.07
2019-03-05T06:10:34.923Z,2.73
2019-03-05T06:13:03.541Z,1.60
2019-03-05T06:15:32.106Z,1.73
2019-03-05T06:18:01.065Z,4.60
2019-03-05T06:20:29.700Z,2.70
2019-03-05T06:22:58.280Z,2.40
2019-03-05T06:25:27.226Z,2.03
2019-03-05T06:27:55.868Z,2.93
2019-03-05T06:30:24.496Z,2.30
2019-03-05T06:32:53.066Z,2.30
2019-03-05T06:35:21.664Z,2.37
2019-03-05T06:37:50.295Z,1.90
2019-03-05T06:40:18.920Z,2.13
2019-03-05T06:42:47.610Z,2.13
2019-03-05T06:45:19.460Z,1.67
2019-03-05T06:47:48.071Z,2.30
2019-03-05T06:50:36.059Z,2.17
2019-03-05T06:53:06.171Z,1.90
2019-03-05T06:55:34.769Z,2.30
2019-03-05T06:58:06.225Z,1.90
2019-03-05T07:00:37.051Z,1.90
2019-03-05T07:03:06.319Z,1.97
2019-03-05T07:06:11.379Z,2.47
2019-03-05T07:09:01.768Z,1.93
2019-03-05T07:11:46.979Z,2.30
2019-03-05T07:14:23.856Z,2.67
2019-03-05T07:17:07.823Z,1.60
2019-03-05T07:20:18.345Z,2.10
2019-03-05T07:23:09.068Z,2.50
2019-03-05T07:25:39.548Z,2.60
2019-03-05T07:28:08.135Z,2.87
2019-03-05T07:30:36.816Z,2.90
2019-03-05T07:33:05.465Z,3.30
2019-03-05T07:35:34.965Z,3.00
2019-03-05T07:38:03.635Z,2.70
2019-03-05T07:40:32.219Z,2.10
2019-03-05T07:43:00.806Z,2.77
2019-03-05T07:45:29.439Z,2.60
2019-03-05T07:47:58.077Z,4.37
2019-03-05T07:50:26.749Z,2.37
2019-03-05T07:52:55.355Z,2.73
2019-03-05T07:55:23.971Z,2.83
2019-03-05T07:57:52.573Z,2.47
2019-03-05T08:00:22.145Z,2.93
2019-03-05T08:02:50.745Z,2.43
2019-03-05T08:05:19.368Z,3.40
2019-03-05T08:07:47.955Z,2.23
2019-03-05T08:10:35.936Z,2.83
2019-03-05T08:13:28.947Z,2.67
2019-03-05T08:16:24.114Z,2.00
2019-03-05T08:18:52.684Z,3.50
2019-03-05T08:21:21.277Z,3.63
2019-03-05T08:23:49.872Z,3.40
2019-03-05T08:26:18.470Z,3.47
2019-03-05T08:28:47.067Z,4.00
2019-03-05T08:31:15.742Z,3.00
2019-03-05T08:33:44.369Z,2.93
2019-03-05T08:36:12.948Z,2.87
2019-03-05T08:38:41.874Z,2.23
2019-03-05T08:41:10.560Z,2.73
2019-03-05T08:43:39.181Z,4.67
2019-03-05T08:46:07.809Z,5.00
2019-03-05T08:48:36.434Z,4.13
2019-03-05T08:51:05.042Z,4.37
2019-03-05T08:53:52.967Z,3.77
2019-03-05T08:56:21.590Z,5.30
2019-03-05T08:58:50.207Z,4.17
2019-03-05T09:01:18.938Z,4.63
2019-03-05T09:03:47.557Z,4.53
2019-03-05T09:06:17.305Z,3.77
2019-03-05T09:08:46.390Z,4.37
2019-03-05T09:11:16.479Z,4.13
2019-03-05T09:13:45.113Z,4.00
2019-03-05T09:16:15.924Z,4.13
2019-03-05T09:18:44.610Z,3.93
2019-03-05T09:21:16.267Z,5.03
2019-03-05T09:23:45.070Z,4.70
2019-03-05T09:26:13.817Z,3.97
2019-03-05T09:28:43.745Z,3.57
2019-03-05T09:31:17.652Z,5.10
2019-03-05T09:33:46.493Z,3.70
2019-03-05T09:36:16.947Z,4.23
2019-03-05T09:38:45.662Z,3.40
2019-03-05T09:41:14.594Z,3.87
2019-03-05T09:43:43.379Z,3.03
2019-03-05T09:46:11.962Z,3.33
2019-03-05T09:48:40.696Z,3.13
2019-03-05T09:51:28.669Z,4.20
2019-03-05T09:53:57.439Z,3.30
2019-03-05T09:56:27.799Z,3.67
2019-03-05T09:58:56.933Z,3.17
2019-03-05T10:01:46.929Z,2.50
2019-03-05T10:04:28.114Z,2.27
2019-03-05T10:06:56.897Z,2.60
2019-03-05T10:09:27.066Z,2.87
2019-03-05T10:11:56.843Z,2.97
2019-03-05T10:14:25.825Z,2.00
2019-03-05T10:16:54.797Z,2.53
2019-03-05T10:19:23.439Z,2.30
2019-03-05T10:21:52.128Z,2.57
2019-03-05T10:24:20.758Z,2.23
2019-03-05T10:26:49.465Z,2.53
2019-03-05T10:29:18.252Z,3.00
2019-03-05T10:31:48.868Z,3.17
2019-03-05T10:34:17.567Z,3.50
2019-03-05T10:36:46.236Z,2.60
2019-03-05T10:39:30.413Z,2.43
2019-03-05T10:41:56.455Z,2.60
2019-03-05T10:44:44.366Z,2.73
2019-03-05T10:47:13.020Z,2.03
2019-03-05T10:49:41.691Z,1.90
2019-03-05T10:52:10.502Z,2.03
2019-03-05T10:54:58.662Z,2.00
2019-03-05T10:57:27.307Z,1.87
2019-03-05T10:59:55.901Z,1.90
2019-03-05T11:02:24.497Z,2.20
2019-03-05T11:04:53.360Z,1.70
2019-03-05T11:07:22.415Z,1.57
2019-03-05T11:09:51.564Z,1.77
2019-03-05T11:12:20.218Z,3.33
2019-03-05T11:14:48.828Z,2.07
2019-03-05T11:17:36.933Z,3.03
2019-03-05T11:20:06.180Z,2.17
2019-03-05T11:22:34.790Z,1.57
2019-03-05T11:25:03.825Z,1.93
2019-03-05T11:27:32.447Z,1.20
2019-03-05T11:30:01.113Z,1.77
2019-03-05T11:32:29.773Z,1.27
2019-03-05T11:34:58.451Z,1.67
2019-03-05T11:37:29.131Z,1.60
2019-03-05T11:39:57.872Z,1.77
2019-03-05T11:42:26.513Z,2.10
2019-03-05T11:45:07.095Z,2.50
2019-03-05T11:47:28.111Z,1.63
2019-03-05T11:49:56.718Z,2.80
2019-03-05T11:52:25.381Z,1.60
2019-03-05T11:54:54.058Z,2.77
2019-03-05T11:57:25.549Z,1.63
2019-03-05T11:59:55.525Z,2.03
2019-03-05T12:02:24.145Z,2.17
2019-03-05T12:04:56.256Z,1.60
2019-03-05T12:07:27.270Z,1.87
2019-03-05T12:09:55.997Z,2.03
2019-03-05T12:12:24.729Z,4.17
2019-03-05T12:14:55.839Z,2.30
2019-03-05T12:17:24.570Z,1.63
2019-03-05T12:19:53.212Z,2.20
2019-03-05T12:22:21.877Z,2.20
2019-03-05T12:24:50.471Z,2.50
2019-03-05T12:27:19.329Z,1.47
2019-03-05T12:29:47.961Z,1.57
2019-03-05T12:32:19.423Z,2.57
2019-03-05T12:34:48.014Z,2.20
2019-03-05T12:37:19.737Z,2.43
2019-03-05T12:39:48.332Z,2.93
2019-03-05T12:42:17.018Z,2.53
2019-03-05T12:44:45.908Z,3.00
2019-03-05T12:47:15.914Z,2.03
2019-03-05T12:49:45.621Z,1.87
2019-03-05T12:52:15.697Z,1.80
2019-03-05T12:54:44.296Z,2.20
2019-03-05T12:57:12.892Z,1.80
2019-03-05T12:59:41.493Z,2.77
2019-03-05T13:02:10.093Z,2.50
2019-03-05T13:04:38.734Z,2.97
2019-03-05T13:07:07.325Z,1.93
2019-03-05T13:09:36.301Z,2.13
2019-03-05T13:12:24.560Z,2.20
2019-03-05T13:14:53.176Z,1.63
2019-03-05T13:17:21.769Z,2.33
2019-03-05T13:19:50.350Z,2.70
2019-03-05T13:22:20.232Z,2.50
2019-03-05T13:24:50.310Z,2.13
2019-03-05T13:27:22.780Z,2.40
2019-03-05T13:29:51.624Z,2.40
2019-03-05T13:32:20.745Z,3.07
2019-03-05T13:34:53.154Z,2.20
2019-03-05T13:37:24.919Z,2.73
2019-03-05T13:39:54.996Z,2.03
2019-03-05T13:42:22.484Z,2.77
2019-03-05T13:44:51.113Z,1.87
2019-03-05T13:47:21.466Z,2.40
2019-03-05T13:50:04.457Z,1.70
2019-03-05T13:52:52.389Z,1.70
2019-03-05T13:55:43.751Z,2.60
2019-03-05T13:58:34.184Z,2.60
2019-03-05T14:01:03.002Z,3.23
2019-03-05T14:03:36.621Z,2.63
2019-03-05T14:06:40.480Z,1.73
2019-03-05T14:09:16.929Z,3.13
2019-03-05T14:11:46.881Z,2.13
2019-03-05T14:14:34.800Z,1.87
2019-03-05T14:17:25.016Z,2.10
2019-03-05T14:19:53.620Z,2.20
2019-03-05T14:22:23.896Z,2.60
2019-03-05T14:25:01.505Z,2.83
2019-03-05T14:27:22.963Z,3.20
2019-03-05T14:29:51.681Z,2.73
2019-03-05T14:32:39.619Z,3.03
2019-03-05T14:35:11.758Z,2.77
2019-03-05T14:37:40.459Z,2.73
2019-03-05T14:40:23.565Z,2.80
2019-03-05T14:42:42.938Z,3.03
2019-03-05T14:45:18.234Z,2.60
2019-03-05T14:47:46.925Z,3.47
2019-03-05T14:50:15.681Z,2.57
2019-03-05T14:52:44.334Z,2.37
2019-03-05T14:55:13.040Z,2.27
2019-03-05T14:57:41.666Z,2.40
2019-03-05T15:00:29.633Z,2.97
2019-03-05T15:02:58.326Z,1.90
2019-03-05T15:05:26.934Z,2.20
2019-03-05T15:07:55.941Z,2.63
2019-03-05T15:10:24.668Z,2.60
2019-03-05T15:12:53.284Z,3.47
2019-03-05T15:15:29.455Z,2.10
2019-03-05T15:17:58.059Z,2.57
2019-03-05T15:20:27.805Z,2.60
2019-03-05T15:22:56.445Z,3.23
2019-03-05T15:25:25.059Z,2.30
2019-03-05T15:27:53.718Z,2.13
2019-03-05T15:30:22.903Z,2.83
2019-03-05T15:32:51.575Z,3.30
2019-03-05T15:35:20.319Z,2.50
2019-03-05T15:37:49.029Z,2.87
2019-03-05T15:40:18.006Z,2.37
2019-03-05T15:42:49.761Z,2.67
2019-03-05T15:45:20.383Z,2.10
2019-03-05T15:47:49.453Z,2.40
2019-03-05T15:50:20.252Z,1.80
2019-03-05T15:52:49.397Z,2.40
2019-03-05T15:55:19.121Z,1.80
2019-03-05T15:57:47.737Z,2.33
2019-03-05T16:00:22.337Z,2.20
2019-03-05T16:02:51.577Z,2.40
2019-03-05T16:05:22.110Z,2.60
2019-03-05T16:07:53.783Z,2.20
2019-03-05T16:10:22.719Z,2.53
2019-03-05T16:12:51.305Z,2.23
2019-03-05T16:15:19.950Z,1.73
2019-03-05T16:17:48.596Z,2.10
2019-03-05T16:20:17.669Z,2.23
2019-03-05T16:22:46.282Z,2.80
2019-03-05T16:25:18.240Z,2.63
2019-03-05T16:27:52.935Z,3.20
2019-03-05T16:30:39.968Z,2.10
2019-03-05T16:33:27.659Z,2.57
2019-03-05T16:36:25.469Z,2.33
2019-03-05T16:39:31.730Z,3.07
2019-03-05T16:42:16.613Z,2.87
2019-03-05T16:44:51.593Z,2.67
2019-03-05T16:47:39.342Z,2.57
2019-03-05T16:50:16.481Z,3.03
2019-03-05T16:52:52.060Z,3.13
2019-03-05T16:55:42.114Z,3.70
2019-03-05T16:58:38.243Z,3.50
2019-03-05T17:01:24.717Z,3.70
2019-03-05T17:04:06.754Z,2.80
2019-03-05T17:06:51.516Z,2.43
2019-03-05T17:09:34.599Z,2.13
2019-03-05T17:12:06.399Z,3.13
2019-03-05T17:14:38.228Z,2.87
2019-03-05T17:17:07.218Z,3.17
2019-03-05T17:19:36.684Z,3.57
2019-03-05T17:22:06.057Z,2.87
2019-03-05T17:24:34.729Z,3.33
2019-03-05T17:27:05.797Z,3.40
2019-03-05T17:29:34.404Z,2.77
2019-03-05T17:32:03.157Z,2.80
2019-03-05T17:34:31.774Z,3.63
2019-03-05T17:37:00.357Z,2.77
2019-03-05T17:39:29.111Z,2.83
2019-03-05T17:41:57.704Z,3.03
2019-03-05T17:44:26.335Z,2.90
2019-03-05T17:46:55.010Z,3.17
2019-03-05T17:49:23.694Z,3.30
2019-03-05T17:52:11.647Z,4.07
2019-03-05T17:54:40.414Z,2.20
2019-03-05T17:57:09.218Z,3.13
2019-03-05T17:59:38.252Z,2.80
2019-03-05T18:02:06.999Z,2.93
2019-03-05T18:04:35.639Z,3.37
2019-03-05T18:07:04.273Z,2.80
2019-03-05T18:09:32.881Z,3.00
2019-03-05T18:12:03.771Z,3.20
2019-03-05T18:14:32.425Z,2.63
2019-03-05T18:17:02.587Z,3.20
2019-03-05T18:19:31.215Z,2.57
2019-03-05T18:21:59.877Z,3.67
2019-03-05T18:24:28.460Z,2.57
2019-03-05T18:26:57.327Z,2.97
2019-03-05T18:29:25.937Z,3.10
2019-03-05T18:31:54.615Z,3.50
2019-03-05T18:34:23.219Z,2.80
2019-03-05T18:36:51.834Z,3.17
2019-03-05T18:39:20.857Z,3.00
2019-03-05T18:41:49.504Z,2.80
2019-03-05T18:44:18.459Z,4.53
2019-03-05T18:46:47.049Z,3.27
2019-03-05T18:49:18.178Z,2.67
2019-03-05T18:51:46.824Z,2.97
2019-03-05T18:54:17.863Z,2.67
2019-03-05T18:56:46.488Z,3.57
2019-03-05T18:59:34.429Z,3.43
2019-03-05T19:02:03.208Z,4.97
2019-03-05T19:04:51.297Z,3.07
2019-03-05T19:07:19.932Z,3.40
2019-03-05T19:10:09.312Z,2.70
2019-03-05T19:12:37.893Z,2.77
2019-03-05T19:15:06.677Z,2.50
2019-03-05T19:17:35.329Z,2.00
2019-03-05T19:20:08.344Z,3.07
2019-03-05T19:22:36.930Z,3.67
2019-03-05T19:25:06.606Z,3.13
2019-03-05T19:27:35.225Z,2.60
2019-03-05T19:30:07.143Z,2.40
2019-03-05T19:32:35.744Z,2.60
2019-03-05T19:35:04.695Z,3.37
2019-03-05T19:37:33.324Z,3.27
2019-03-05T19:40:03.552Z,2.50
2019-03-05T19:42:32.232Z,2.47
2019-03-05T19:45:00.804Z,2.50
2019-03-05T19:47:48.725Z,2.97
2019-03-05T19:50:18.043Z,1.90
2019-03-05T19:52:47.018Z,2.40
2019-03-05T19:55:19.745Z,3.50
2019-03-05T19:57:48.599Z,2.47
2019-03-05T20:00:30.169Z,2.80
2019-03-05T20:02:58.856Z,3.00
2019-03-05T20:05:27.579Z,3.73
2019-03-05T20:07:56.179Z,3.07
2019-03-05T20:10:25.321Z,2.57
2019-03-05T20:12:53.999Z,2.37
2019-03-05T20:15:35.550Z,2.10
2019-03-05T20:17:58.817Z,2.90
2019-03-05T20:20:23.503Z,2.93
2019-03-05T20:22:52.118Z,2.50
2019-03-05T20:25:20.736Z,3.10
2019-03-05T20:27:50.944Z,2.60
2019-03-05T20:30:19.658Z,3.27
2019-03-05T20:32:48.248Z,2.67
2019-03-05T20:35:19.451Z,3.17
2019-03-05T20:38:10.609Z,3.07
2019-03-05T20:40:39.248Z,2.93
2019-03-05T20:43:07.851Z,2.90
2019-03-05T20:45:36.511Z,3.17
2019-03-05T20:48:05.180Z,3.40
2019-03-05T20:50:34.098Z,3.63
2019-03-05T20:53:21.995Z,3.60
2019-03-05T20:55:50.613Z,2.87
2019-03-05T20:58:19.194Z,3.67
2019-03-05T21:00:47.792Z,2.70
2019-03-05T21:03:18.547Z,3.83
2019-03-05T21:05:47.187Z,3.23
2019-03-05T21:08:15.953Z,3.73
2019-03-05T21:10:44.583Z,3.67
2019-03-05T21:13:13.184Z,3.47
2019-03-05T21:15:42.195Z,3.53
2019-03-05T21:18:10.855Z,3.13
2019-03-05T21:20:39.596Z,3.37
2019-03-05T21:23:08.293Z,3.27
2019-03-05T21:25:36.984Z,3.70
2019-03-05T21:28:06.024Z,4.33
2019-03-05T21:30:34.725Z,4.20
2019-03-05T21:33:06.695Z,4.00
2019-03-05T21:35:35.430Z,4.00
2019-03-05T21:38:04.193Z,3.97
2019-03-05T21:40:32.859Z,4.10
2019-03-05T21:43:01.735Z,4.00
2019-03-05T21:45:32.924Z,4.40
2019-03-05T21:48:01.904Z,4.00
2019-03-05T21:50:30.476Z,5.00
2019-03-05T21:52:59.156Z,4.43
2019-03-05T21:55:27.765Z,4.70
2019-03-05T21:57:56.763Z,4.50
2019-03-05T22:00:27.408Z,4.27
2019-03-05T22:02:56.688Z,4.90
2019-03-05T22:05:25.423Z,4.60
2019-03-05T22:07:54.027Z,5.20
2019-03-05T22:10:36.634Z,4.60
2019-03-05T22:12:52.990Z,5.10
2019-03-05T22:15:21.700Z,5.47
2019-03-05T22:17:50.589Z,4.97
2019-03-05T22:20:19.680Z,4.90
2019-03-05T22:22:48.297Z,5.40
2019-03-05T22:25:18.070Z,5.30
2019-03-05T22:27:46.797Z,5.63
2019-03-05T22:30:20.360Z,6.33
2019-03-05T22:32:48.973Z,6.60
2019-03-05T22:35:18.219Z,6.33
2019-03-05T22:37:46.813Z,6.27
2019-03-05T22:40:15.562Z,6.77
2019-03-05T22:42:44.139Z,6.47
2019-03-05T22:45:16.795Z,6.30
2019-03-05T22:47:45.381Z,5.80
2019-03-05T22:50:14.433Z,6.47
2019-03-05T22:52:43.044Z,6.30
2019-03-05T22:55:11.712Z,7.13
2019-03-05T22:57:40.304Z,7.17
2019-03-05T23:00:12.518Z,7.50
2019-03-05T23:02:41.160Z,7.93
2019-03-05T23:05:10.180Z,7.67
2019-03-05T23:07:38.774Z,9.03
2019-03-05T23:10:08.432Z,7.60
2019-03-05T23:12:37.328Z,6.90
2019-03-05T23:15:06.039Z,6.67
2019-03-05T23:17:34.948Z,6.60
2019-03-05T23:20:03.697Z,7.67
2019-03-05T23:22:32.276Z,6.60
2019-03-05T23:25:01.778Z,7.53
2019-03-05T23:27:30.367Z,8.87
2019-03-05T23:29:58.948Z,8.57
2019-03-05T23:32:27.546Z,9.63
2019-03-05T23:35:15.509Z,9.27
2019-03-05T23:37:44.156Z,10.63
2019-03-05T23:40:12.751Z,10.53
2019-03-05T23:42:41.394Z,11.10
2019-03-05T23:45:10.033Z,12.50
2019-03-05T23:47:38.615Z,13.53
2019-03-05T23:50:07.539Z,13.57
2019-03-05T23:52:36.252Z,12.93
2019-03-05T23:55:04.972Z,14.00
2019-03-05T23:57:33.668Z,17.33
